createdAt,value
2024-04-21T00:00:36.502Z,7.72
2024-04-21T00:03:06.324Z,7.67
2024-04-21T00:05:33.294Z,7.81
2024-04-21T00:08:06.126Z,7.83
2024-04-21T00:10:33.021Z,7.94
2024-04-21T00:13:02.975Z,7.85
2024-04-21T00:15:29.862Z,7.93
2024-04-21T00:17:59.662Z,7.76
2024-04-21T00:20:27.016Z,7.45
2024-04-21T00:22:56.536Z,7.59
2024-04-21T00:25:26.188Z,7.30
2024-04-21T00:27:56.083Z,7.42
2024-04-21T00:30:23.005Z,7.31
2024-04-21T00:32:52.561Z,6.98
2024-04-21T00:35:19.504Z,6.75
2024-04-21T00:37:49.505Z,6.70
2024-04-21T00:40:17.987Z,6.74
2024-04-21T00:43:02.551Z,6.58
2024-04-21T00:45:35.672Z,6.64
2024-04-21T00:48:09.086Z,5.89
2024-04-21T00:50:37.510Z,6.22
2024-04-21T00:53:07.925Z,6.31
2024-04-21T00:55:35.253Z,6.51
2024-04-21T00:58:09.041Z,6.75
2024-04-21T01:00:37.142Z,6.45
2024-04-21T01:03:07.893Z,6.75
2024-04-21T01:05:34.978Z,6.70
2024-04-21T01:08:04.696Z,6.63
2024-04-21T01:10:31.982Z,7.01
2024-04-21T01:13:02.035Z,6.83
2024-04-21T01:15:31.721Z,7.15
2024-04-21T01:18:01.396Z,7.24
2024-04-21T01:20:29.633Z,7.00
2024-04-21T01:23:02.170Z,6.78
2024-04-21T01:25:29.440Z,6.53
2024-04-21T01:27:59.166Z,5.88
2024-04-21T01:30:25.998Z,5.86
2024-04-21T01:32:55.957Z,6.12
2024-04-21T01:35:23.242Z,6.11
2024-04-21T01:37:52.669Z,5.87
2024-04-21T01:40:22.491Z,6.17
2024-04-21T01:42:52.469Z,6.25
2024-04-21T01:45:19.485Z,5.98
2024-04-21T01:47:49.014Z,6.47
2024-04-21T01:50:16.374Z,6.08
2024-04-21T01:52:45.794Z,6.22
2024-04-21T01:55:14.296Z,6.02
2024-04-21T01:57:46.964Z,6.05
2024-04-21T02:00:14.039Z,6.06
2024-04-21T02:02:43.728Z,6.01
2024-04-21T02:05:10.988Z,5.95
2024-04-21T02:07:40.892Z,5.95
2024-04-21T02:10:08.150Z,5.88
2024-04-21T02:12:37.911Z,5.78
2024-04-21T02:15:08.452Z,5.64
2024-04-21T02:17:38.623Z,5.65
2024-04-21T02:20:06.437Z,5.77
2024-04-21T02:22:36.138Z,5.75
2024-04-21T02:25:03.225Z,5.79
2024-04-21T02:27:32.811Z,5.82
2024-04-21T02:29:59.654Z,5.93
2024-04-21T02:32:31.933Z,5.92
2024-04-21T02:35:00.412Z,6.01
2024-04-21T02:37:30.329Z,5.84
2024-04-21T02:39:57.279Z,5.86
2024-04-21T02:42:26.929Z,5.63
2024-04-21T02:44:53.891Z,5.69
2024-04-21T02:47:23.764Z,5.60
2024-04-21T02:49:53.593Z,5.60
2024-04-21T02:52:23.005Z,5.87
2024-04-21T02:54:50.046Z,5.88
2024-04-21T02:57:19.590Z,5.93
2024-04-21T02:59:46.458Z,5.89
2024-04-21T03:02:16.058Z,5.87
2024-04-21T03:04:42.906Z,5.95
2024-04-21T03:07:15.411Z,5.89
2024-04-21T03:09:43.145Z,5.95
2024-04-21T03:12:13.100Z,5.97
2024-04-21T03:14:40.081Z,6.03
2024-04-21T03:17:09.621Z,5.89
2024-04-21T03:19:36.446Z,5.92
2024-04-21T03:22:06.174Z,5.51
2024-04-21T03:24:37.178Z,5.62
2024-04-21T03:27:07.121Z,5.78
2024-04-21T03:29:34.012Z,5.58
2024-04-21T03:32:03.679Z,5.56
2024-04-21T03:34:30.521Z,5.55
2024-04-21T03:37:00.035Z,5.75
2024-04-21T03:39:31.042Z,5.71
2024-04-21T03:42:03.325Z,5.70
2024-04-21T03:44:33.372Z,5.96
2024-04-21T03:47:00.585Z,5.88
2024-04-21T03:49:30.406Z,5.90
2024-04-21T03:51:57.394Z,5.87
2024-04-21T03:54:27.262Z,5.88
2024-04-21T03:56:54.041Z,6.04
2024-04-21T03:59:26.232Z,5.81
2024-04-21T04:01:53.187Z,5.90
2024-04-21T04:04:23.178Z,5.74
2024-04-21T04:06:50.821Z,5.87
2024-04-21T04:09:20.662Z,5.96
2024-04-21T04:11:47.512Z,5.98
2024-04-21T04:14:17.576Z,5.87
2024-04-21T04:16:47.163Z,6.07
2024-04-21T04:19:17.275Z,6.10
2024-04-21T04:21:44.186Z,6.12
2024-04-21T04:24:13.993Z,5.94
2024-04-21T04:26:40.795Z,5.76
2024-04-21T04:29:10.214Z,6.17
2024-04-21T04:31:37.005Z,6.26
2024-04-21T04:34:09.442Z,6.22
2024-04-21T04:36:36.393Z,6.40
2024-04-21T04:39:06.563Z,6.37
2024-04-21T04:41:33.447Z,6.45
2024-04-21T04:44:03.499Z,6.53
2024-04-21T04:46:30.700Z,6.40
2024-04-21T04:49:00.457Z,6.44
2024-04-21T04:51:30.814Z,6.70
2024-04-21T04:54:00.650Z,6.78
2024-04-21T04:56:27.706Z,6.76
2024-04-21T04:58:57.484Z,6.79
2024-04-21T05:01:24.585Z,6.91
2024-04-21T05:03:54.444Z,7.03
2024-04-21T05:06:21.281Z,7.14
2024-04-21T05:08:53.780Z,7.22
2024-04-21T05:11:20.700Z,7.23
2024-04-21T05:13:50.204Z,7.93
2024-04-21T05:16:17.087Z,8.33
2024-04-21T05:18:46.655Z,8.71
2024-04-21T05:21:14.566Z,8.34
2024-04-21T05:23:44.077Z,8.20
2024-04-21T05:26:13.524Z,8.11
2024-04-21T05:28:48.720Z,7.83
2024-04-21T05:31:17.149Z,7.17
2024-04-21T05:33:47.020Z,6.88
2024-04-21T05:36:15.015Z,7.15
2024-04-21T05:38:44.427Z,7.52
2024-04-21T05:41:13.951Z,7.15
2024-04-21T05:43:43.394Z,7.72
2024-04-21T05:46:10.316Z,7.93
2024-04-21T05:48:39.769Z,8.48
2024-04-21T05:51:06.919Z,8.56
2024-04-21T05:53:36.564Z,8.50
2024-04-21T05:56:04.418Z,8.69
2024-04-21T05:58:36.651Z,8.22
2024-04-21T06:01:04.509Z,7.74
2024-04-21T06:03:34.274Z,7.42
2024-04-21T06:06:01.159Z,7.77
2024-04-21T06:08:30.651Z,8.11
2024-04-21T06:10:57.604Z,7.87
2024-04-21T06:13:27.368Z,8.40
2024-04-21T06:15:57.159Z,8.83
2024-04-21T06:18:27.153Z,9.41
2024-04-21T06:20:54.078Z,9.11
2024-04-21T06:23:23.784Z,8.81
2024-04-21T06:25:51.279Z,8.71
2024-04-21T06:28:23.851Z,8.10
2024-04-21T06:30:50.784Z,7.66
2024-04-21T06:33:27.626Z,7.82
2024-04-21T06:35:55.915Z,7.83
2024-04-21T06:38:25.593Z,7.99
2024-04-21T06:40:53.837Z,6.98
2024-04-21T06:43:23.364Z,7.84
2024-04-21T06:45:54.368Z,8.00
2024-04-21T06:48:26.927Z,7.45
2024-04-21T06:50:53.750Z,7.50
2024-04-21T06:53:23.839Z,7.55
2024-04-21T06:55:50.725Z,8.12
2024-04-21T06:58:21.162Z,7.82
2024-04-21T07:00:48.163Z,7.91
2024-04-21T07:03:18.583Z,7.40
2024-04-21T07:05:50.708Z,7.54
2024-04-21T07:08:20.156Z,8.42
2024-04-21T07:10:50.639Z,8.20
2024-04-21T07:13:20.433Z,8.29
2024-04-21T07:15:47.370Z,8.22
2024-04-21T07:18:17.162Z,7.92
2024-04-21T07:20:48.426Z,8.05
2024-04-21T07:23:17.831Z,8.54
2024-04-21T07:25:44.772Z,7.75
2024-04-21T07:28:14.223Z,7.75
2024-04-21T07:30:42.285Z,7.93
2024-04-21T07:33:12.283Z,8.84
2024-04-21T07:35:40.262Z,8.56
2024-04-21T07:38:12.842Z,8.30
2024-04-21T07:40:39.715Z,7.66
2024-04-21T07:43:10.582Z,7.78
2024-04-21T07:45:37.620Z,8.36
2024-04-21T07:48:08.025Z,8.43
2024-04-21T07:50:35.518Z,9.29
2024-04-21T07:53:05.365Z,8.73
2024-04-21T07:55:34.926Z,8.76
2024-04-21T07:58:05.982Z,8.57
2024-04-21T08:00:32.910Z,8.44
2024-04-21T08:03:02.758Z,8.49
2024-04-21T08:05:29.772Z,8.47
2024-04-21T08:07:59.198Z,8.97
2024-04-21T08:10:26.353Z,7.64
2024-04-21T08:12:58.433Z,7.37
2024-04-21T08:15:25.446Z,7.63
2024-04-21T08:17:55.111Z,7.85
2024-04-21T08:20:21.936Z,8.20
2024-04-21T08:22:51.545Z,7.01
2024-04-21T08:25:18.394Z,7.38
2024-04-21T08:27:50.402Z,7.12
2024-04-21T08:30:19.884Z,7.37
2024-04-21T08:32:52.256Z,7.45
2024-04-21T08:35:19.142Z,7.06
2024-04-21T08:37:48.772Z,6.90
2024-04-21T08:40:16.166Z,6.87
2024-04-21T08:42:48.388Z,6.87
2024-04-21T08:45:21.405Z,7.26
2024-04-21T08:47:51.436Z,7.34
2024-04-21T08:50:20.986Z,7.83
2024-04-21T08:52:51.194Z,8.14
2024-04-21T08:55:19.924Z,7.78
2024-04-21T08:57:50.207Z,8.21
2024-04-21T09:00:21.189Z,8.39
2024-04-21T09:02:52.260Z,7.72
2024-04-21T09:05:19.495Z,7.53
2024-04-21T09:07:49.781Z,8.00
2024-04-21T09:10:16.658Z,8.24
2024-04-21T09:12:47.163Z,7.83
2024-04-21T09:15:13.961Z,7.70
2024-04-21T09:17:46.411Z,8.60
2024-04-21T09:20:13.478Z,8.42
2024-04-21T09:22:43.496Z,8.90
2024-04-21T09:25:12.104Z,8.42
2024-04-21T09:27:43.725Z,8.45
2024-04-21T09:30:11.075Z,7.76
2024-04-21T09:32:41.177Z,8.12
2024-04-21T09:35:11.993Z,8.94
2024-04-21T09:37:47.493Z,8.24
2024-04-21T09:40:16.019Z,9.05
2024-04-21T09:42:47.928Z,8.76
2024-04-21T09:45:16.678Z,10.04
2024-04-21T09:47:48.129Z,11.21
2024-04-21T09:50:18.788Z,11.44
2024-04-21T09:52:52.305Z,11.03
2024-04-21T09:55:20.427Z,11.21
2024-04-21T09:58:00.044Z,10.75
2024-04-21T10:00:31.035Z,9.81
2024-04-21T10:03:04.394Z,10.05
2024-04-21T10:05:35.391Z,10.30
2024-04-21T10:08:06.040Z,10.77
2024-04-21T10:10:37.266Z,10.84
2024-04-21T10:13:12.551Z,10.79
2024-04-21T10:15:39.596Z,10.04
2024-04-21T10:18:11.567Z,9.82
2024-04-21T10:20:43.435Z,11.17
2024-04-21T10:23:13.347Z,11.21
2024-04-21T10:25:41.870Z,10.14
2024-04-21T10:28:13.037Z,11.08
2024-04-21T10:30:40.958Z,11.20
2024-04-21T10:33:14.208Z,11.39
2024-04-21T10:35:43.717Z,12.21
2024-04-21T10:38:15.790Z,12.82
2024-04-21T10:40:47.185Z,12.21
2024-04-21T10:43:22.029Z,12.27
2024-04-21T10:45:49.222Z,11.13
2024-04-21T10:48:20.341Z,9.90
2024-04-21T10:50:50.813Z,9.53
2024-04-21T10:53:20.844Z,9.53
2024-04-21T10:55:54.762Z,10.47
2024-04-21T10:58:25.114Z,10.39
2024-04-21T11:00:52.189Z,10.65
2024-04-21T11:03:21.761Z,11.21
2024-04-21T11:06:03.344Z,11.66
2024-04-21T11:08:34.050Z,11.64
2024-04-21T11:11:01.722Z,12.59
2024-04-21T11:13:31.999Z,11.43
2024-04-21T11:15:59.265Z,11.56
2024-04-21T11:18:28.908Z,11.27
2024-04-21T11:20:58.490Z,11.24
2024-04-21T11:23:28.013Z,11.81
2024-04-21T11:25:56.449Z,10.90
2024-04-21T11:28:27.977Z,11.24
2024-04-21T11:31:05.936Z,11.84
2024-04-21T11:33:36.872Z,12.18
2024-04-21T11:36:09.663Z,11.75
2024-04-21T11:38:40.507Z,11.36
2024-04-21T11:41:07.561Z,11.22
2024-04-21T11:43:37.760Z,11.01
2024-04-21T11:46:05.307Z,10.66
2024-04-21T11:48:37.538Z,10.70
2024-04-21T11:51:07.436Z,10.50
2024-04-21T11:53:37.049Z,10.92
2024-04-21T11:56:04.585Z,11.71
2024-04-21T11:58:35.539Z,12.49
2024-04-21T12:01:03.207Z,12.71
2024-04-21T12:03:33.383Z,12.74
2024-04-21T12:06:01.003Z,11.45
2024-04-21T12:08:33.178Z,12.30
2024-04-21T12:11:00.367Z,12.62
2024-04-21T12:13:30.080Z,13.18
2024-04-21T12:15:56.997Z,11.94
2024-04-21T12:18:26.635Z,12.40
2024-04-21T12:20:53.775Z,12.64
2024-04-21T12:23:23.828Z,12.87
2024-04-21T12:25:53.236Z,12.19
2024-04-21T12:28:23.369Z,12.23
2024-04-21T12:30:50.618Z,11.65
2024-04-21T12:33:20.180Z,12.51
2024-04-21T12:35:47.567Z,12.67
2024-04-21T12:38:17.217Z,12.36
2024-04-21T12:40:44.203Z,12.32
2024-04-21T12:43:16.438Z,10.78
2024-04-21T12:45:43.489Z,9.88
2024-04-21T12:48:14.903Z,9.92
2024-04-21T12:50:43.764Z,10.70
2024-04-21T12:53:14.195Z,10.20
2024-04-21T12:55:43.657Z,10.10
2024-04-21T12:58:13.064Z,10.30
2024-04-21T13:00:43.475Z,11.14
2024-04-21T13:03:17.591Z,10.77
2024-04-21T13:05:47.521Z,11.18
2024-04-21T13:08:16.925Z,10.86
2024-04-21T13:10:43.910Z,11.49
2024-04-21T13:13:13.727Z,11.33
2024-04-21T13:15:43.340Z,12.21
2024-04-21T13:18:13.129Z,12.59
2024-04-21T13:20:40.034Z,12.39
2024-04-21T13:23:09.911Z,11.47
2024-04-21T13:25:37.045Z,11.50
2024-04-21T13:28:07.585Z,10.91
2024-04-21T13:30:36.036Z,10.84
2024-04-21T13:33:08.738Z,10.79
2024-04-21T13:35:36.411Z,10.83
2024-04-21T13:38:07.901Z,10.79
2024-04-21T13:40:34.745Z,11.42
2024-04-21T13:43:04.376Z,11.20
2024-04-21T13:45:31.311Z,11.38
2024-04-21T13:48:01.074Z,11.97
2024-04-21T13:50:30.876Z,12.26
2024-04-21T13:53:01.212Z,12.79
2024-04-21T13:55:28.142Z,11.41
2024-04-21T13:57:57.640Z,12.28
2024-04-21T14:00:25.391Z,11.24
2024-04-21T14:02:56.285Z,9.93
2024-04-21T14:05:23.231Z,9.06
2024-04-21T14:08:03.097Z,8.04
2024-04-21T14:10:30.196Z,7.07
2024-04-21T14:13:00.162Z,7.42
2024-04-21T14:15:27.015Z,8.34
2024-04-21T14:17:56.813Z,8.10
2024-04-21T14:20:23.636Z,8.46
2024-04-21T14:22:55.725Z,8.71
2024-04-21T14:25:22.649Z,9.16
2024-04-21T14:27:52.634Z,9.24
2024-04-21T14:30:19.548Z,8.90
2024-04-21T14:32:49.009Z,9.94
2024-04-21T14:35:17.031Z,9.97
2024-04-21T14:37:46.917Z,10.90
2024-04-21T14:40:17.015Z,11.38
2024-04-21T14:42:47.226Z,11.45
2024-04-21T14:45:14.064Z,10.67
2024-04-21T14:47:45.674Z,11.34
2024-04-21T14:50:12.926Z,11.49
2024-04-21T14:52:46.874Z,11.08
2024-04-21T14:55:17.678Z,10.54
2024-04-21T14:57:48.658Z,11.57
2024-04-21T15:00:16.052Z,11.02
2024-04-21T15:02:45.547Z,11.45
2024-04-21T15:05:12.924Z,10.72
2024-04-21T15:07:42.750Z,10.81
2024-04-21T15:10:09.882Z,10.86
2024-04-21T15:12:42.077Z,10.73
2024-04-21T15:15:10.105Z,10.95
2024-04-21T15:17:40.013Z,10.86
2024-04-21T15:20:07.857Z,11.08
2024-04-21T15:22:39.058Z,11.54
2024-04-21T15:25:06.602Z,11.75
2024-04-21T15:27:36.657Z,12.37
2024-04-21T15:30:10.212Z,11.15
2024-04-21T15:32:42.101Z,10.59
2024-04-21T15:35:09.382Z,10.78
2024-04-21T15:37:39.674Z,10.64
2024-04-21T15:40:07.303Z,11.08
2024-04-21T15:42:36.889Z,11.02
2024-04-21T15:45:08.630Z,10.72
2024-04-21T15:47:38.705Z,10.86
2024-04-21T15:50:06.397Z,10.74
2024-04-21T15:52:36.177Z,10.56
2024-04-21T15:55:07.279Z,10.51
2024-04-21T15:57:37.012Z,10.88
2024-04-21T16:00:05.360Z,11.47
2024-04-21T16:02:40.283Z,11.02
2024-04-21T16:05:08.653Z,10.18
2024-04-21T16:07:38.376Z,10.38
2024-04-21T16:10:05.945Z,10.48
2024-04-21T16:12:39.375Z,10.27
2024-04-21T16:15:08.584Z,10.32
2024-04-21T16:17:40.817Z,10.31
2024-04-21T16:20:09.556Z,10.92
2024-04-21T16:22:39.269Z,11.65
2024-04-21T16:25:08.578Z,12.07
2024-04-21T16:27:38.041Z,11.20
2024-04-21T16:30:06.019Z,10.61
2024-04-21T16:32:36.012Z,11.46
2024-04-21T16:35:07.242Z,11.48
2024-04-21T16:37:37.747Z,11.38
2024-04-21T16:40:06.413Z,11.07
2024-04-21T16:42:36.611Z,11.03
2024-04-21T16:45:04.178Z,10.90
2024-04-21T16:47:38.136Z,10.78
2024-04-21T16:50:09.917Z,11.39
2024-04-21T16:52:39.903Z,11.25
2024-04-21T16:55:08.173Z,10.38
2024-04-21T16:57:40.902Z,10.21
2024-04-21T17:00:09.423Z,10.16
2024-04-21T17:02:39.831Z,10.25
2024-04-21T17:05:10.614Z,9.89
2024-04-21T17:07:42.730Z,9.71
2024-04-21T17:10:11.322Z,9.63
2024-04-21T17:12:40.926Z,9.49
2024-04-21T17:15:08.624Z,9.43
2024-04-21T17:17:40.309Z,9.66
2024-04-21T17:20:10.343Z,10.00
2024-04-21T17:22:39.916Z,9.79
2024-04-21T17:25:07.276Z,9.94
2024-04-21T17:27:37.272Z,9.37
2024-04-21T17:30:05.682Z,9.57
2024-04-21T17:32:35.885Z,9.89
2024-04-21T17:35:03.065Z,9.76
2024-04-21T17:37:35.205Z,9.62
2024-04-21T17:40:02.382Z,9.30
2024-04-21T17:42:31.955Z,9.54
2024-04-21T17:44:58.803Z,9.77
2024-04-21T17:47:28.358Z,9.68
2024-04-21T17:49:55.184Z,9.63
2024-04-21T17:52:26.058Z,9.01
2024-04-21T17:55:04.019Z,9.34
2024-04-21T17:57:36.554Z,8.82
2024-04-21T18:00:04.273Z,8.85
2024-04-21T18:02:34.055Z,8.83
2024-04-21T18:05:01.012Z,8.88
2024-04-21T18:07:32.480Z,8.82
2024-04-21T18:10:03.764Z,8.93
2024-04-21T18:12:33.923Z,8.66
2024-04-21T18:15:01.206Z,8.96
2024-04-21T18:17:30.732Z,8.96
2024-04-21T18:19:57.600Z,9.02
2024-04-21T18:22:28.221Z,8.73
2024-04-21T18:24:57.359Z,8.99
2024-04-21T18:27:29.644Z,8.53
2024-04-21T18:29:58.605Z,8.69
2024-04-21T18:32:31.242Z,8.51
2024-04-21T18:34:58.457Z,8.66
2024-04-21T18:37:27.929Z,8.70
2024-04-21T18:39:55.051Z,8.38
2024-04-21T18:42:24.489Z,8.62
2024-04-21T18:44:55.576Z,8.42
2024-04-21T18:47:28.829Z,8.47
2024-04-21T18:49:56.371Z,8.24
2024-04-21T18:52:26.031Z,8.47
2024-04-21T18:54:52.969Z,8.76
2024-04-21T18:57:22.642Z,8.76
2024-04-21T18:59:49.527Z,8.52
2024-04-21T19:02:21.549Z,8.66
2024-04-21T19:04:48.824Z,8.41
2024-04-21T19:07:19.022Z,8.52
2024-04-21T19:09:46.553Z,8.58
2024-04-21T19:12:17.381Z,8.43
2024-04-21T19:14:44.709Z,8.41
2024-04-21T19:17:14.902Z,8.47
2024-04-21T19:19:45.149Z,8.37
2024-04-21T19:22:15.176Z,8.25
2024-04-21T19:24:42.100Z,8.33
2024-04-21T19:27:11.770Z,8.09
2024-04-21T19:29:38.588Z,8.04
2024-04-21T19:32:11.291Z,8.32
2024-04-21T19:34:38.125Z,8.30
2024-04-21T19:37:10.435Z,8.31
2024-04-21T19:39:37.265Z,8.38
2024-04-21T19:42:07.574Z,8.33
2024-04-21T19:44:34.748Z,8.26
2024-04-21T19:47:04.741Z,8.36
2024-04-21T19:49:31.770Z,8.33
2024-04-21T19:52:01.318Z,8.34
2024-04-21T19:54:31.735Z,8.27
2024-04-21T19:57:02.100Z,7.92
2024-04-21T19:59:28.896Z,7.83
2024-04-21T20:01:58.455Z,7.80
2024-04-21T20:04:25.759Z,7.79
2024-04-21T20:06:55.332Z,7.59
2024-04-21T20:09:22.209Z,7.56
2024-04-21T20:11:54.560Z,7.83
2024-04-21T20:14:23.514Z,7.85
2024-04-21T20:17:09.472Z,7.84
2024-04-21T20:19:38.975Z,7.93
2024-04-21T20:22:08.575Z,7.70
2024-04-21T20:24:38.128Z,7.79
2024-04-21T20:27:07.701Z,7.93
2024-04-21T20:29:37.409Z,7.74
2024-04-21T20:32:04.824Z,7.57
2024-04-21T20:34:34.346Z,7.53
2024-04-21T20:37:01.399Z,7.53
2024-04-21T20:39:30.925Z,7.52
2024-04-21T20:41:57.867Z,7.60
2024-04-21T20:44:29.902Z,7.62
2024-04-21T20:46:56.797Z,7.48
2024-04-21T20:49:26.535Z,7.46
2024-04-21T20:51:53.346Z,7.50
2024-04-21T20:54:22.964Z,7.31
2024-04-21T20:56:49.907Z,7.13
2024-04-21T20:59:19.659Z,6.81
2024-04-21T21:01:49.448Z,6.99
2024-04-21T21:04:19.071Z,7.15
2024-04-21T21:06:45.894Z,7.04
2024-04-21T21:09:15.338Z,7.07
2024-04-21T21:11:42.192Z,7.10
2024-04-21T21:14:11.836Z,7.09
2024-04-21T21:16:38.747Z,7.13
2024-04-21T21:19:11.017Z,7.29
2024-04-21T21:21:37.813Z,7.44
2024-04-21T21:24:07.836Z,7.35
2024-04-21T21:26:34.967Z,7.25
2024-04-21T21:29:04.440Z,7.08
2024-04-21T21:31:31.564Z,6.82
2024-04-21T21:34:01.101Z,6.65
2024-04-21T21:36:30.680Z,6.60
2024-04-21T21:39:02.521Z,6.74
2024-04-21T21:41:29.653Z,6.80
2024-04-21T21:43:59.071Z,6.71
2024-04-21T21:46:26.089Z,6.74
2024-04-21T21:48:55.560Z,6.65
2024-04-21T21:51:22.394Z,6.64
2024-04-21T21:53:54.481Z,6.64
2024-04-21T21:56:21.281Z,6.77
2024-04-21T21:58:50.885Z,6.83
2024-04-21T22:01:17.814Z,6.79
2024-04-21T22:03:47.778Z,6.76
2024-04-21T22:06:14.616Z,6.72
2024-04-21T22:08:44.150Z,6.72
2024-04-21T22:11:13.792Z,6.72
2024-04-21T22:13:43.346Z,6.46
2024-04-21T22:16:12.147Z,6.43
2024-04-21T22:18:43.499Z,6.40
2024-04-21T22:21:10.376Z,6.41
2024-04-21T22:23:39.774Z,6.06
2024-04-21T22:26:06.668Z,5.91
2024-04-21T22:28:38.849Z,5.89
2024-04-21T22:31:05.894Z,5.68
2024-04-21T22:33:40.913Z,5.51
2024-04-21T22:36:08.343Z,5.75
2024-04-21T22:38:38.642Z,5.73
2024-04-21T22:41:05.695Z,5.31
2024-04-21T22:43:38.383Z,5.22
2024-04-21T22:46:06.524Z,5.36
2024-04-21T22:48:37.656Z,5.42
2024-04-21T22:51:05.797Z,5.06
2024-04-21T22:53:35.397Z,5.08
2024-04-21T22:56:02.301Z,5.14
2024-04-21T22:58:32.097Z,4.97
2024-04-21T23:01:06.702Z,4.97
2024-04-21T23:03:37.061Z,5.09
2024-04-21T23:06:04.784Z,5.15
2024-04-21T23:08:34.276Z,4.98
2024-04-21T23:11:01.832Z,5.31
2024-04-21T23:13:31.617Z,5.17
2024-04-21T23:15:59.454Z,5.14
2024-04-21T23:18:31.627Z,4.92
2024-04-21T23:20:58.461Z,4.93
2024-04-21T23:23:27.960Z,5.07
2024-04-21T23:25:54.819Z,4.92
2024-04-21T23:28:24.566Z,4.93
2024-04-21T23:30:51.427Z,5.04
2024-04-21T23:33:20.870Z,4.99
2024-04-21T23:35:50.444Z,5.02
2024-04-21T23:38:20.332Z,5.02
2024-04-21T23:40:47.216Z,5.05
2024-04-21T23:43:16.610Z,5.08
2024-04-21T23:45:43.874Z,5.27
2024-04-21T23:48:13.481Z,5.42
2024-04-21T23:50:40.376Z,5.59
2024-04-21T23:53:12.473Z,5.44
2024-04-21T23:55:40.607Z,5.47
2024-04-21T23:58:10.280Z,5.73
